Pagrindinis puslapis
METAR-TAF:

METAR-TAF

Oro uostai :

Büchel, Vokietija

platuma: 50-10N, ilguma: 007-04E, Aukštis: 478 m

Dabartinis oras

Ataskaita buvo paskelbta 26 minutes, ne 03:20 UTC
Vėjas 11 kt iš Pietvakarių
Temperatūra 4°C
Drėgmė 93%
Slėgis 1013 hPa
Matomumas 10 km arba daugiau

METAR: ETSB 170320Z AUTO 23011KT 9999 // ////// 04/03 Q1013 ///

Laikas: 04:46 (03:46 UTC)


TAF: trūkstamas

Orai ataskaitas ir orų prognozės (METAR, TAF).

turimą stotys yra geltonos ir raudonos taškus žemėlapyje.

Perkelti pele per norėdami pamatyti stoties vardą.

Tada spustelėkite, norėdami matyti oro stebėjimo ir prognozės.

Norėdami pakeisti žemėlapį: spustelėkite ant žalios mygtukų su juodo kryžiaus žemyn,; žalią mygtuką su brūkšneliu, jei norite nutolinti; arba žalių rodyklių gretimoms žemėlapius.


METAR-TAF: